sensor_id;sensor_type;location;lat;lon;timestamp;P1;durP1;ratioP1;P2;durP2;ratioP2
67986;SDS011;54767;53.800;15.956;2022-07-11T00:00:07;1.60;;;1.00;;
67986;SDS011;54767;53.800;15.956;2022-07-11T00:02:57;2.00;;;1.00;;
67986;SDS011;54767;53.800;15.956;2022-07-11T00:05:25;3.20;;;1.00;;
67986;SDS011;54767;53.800;15.956;2022-07-11T00:07:52;4.30;;;1.10;;
67986;SDS011;54767;53.800;15.956;2022-07-11T00:10:19;2.50;;;1.00;;
67986;SDS011;54767;53.800;15.956;2022-07-11T00:12:46;1.20;;;1.10;;
67986;SDS011;54767;53.800;15.956;2022-07-11T00:15:13;4.90;;;1.10;;
67986;SDS011;54767;53.800;15.956;2022-07-11T00:17:40;4.00;;;1.30;;
67986;SDS011;54767;53.800;15.956;2022-07-11T00:20:07;3.20;;;1.20;;
67986;SDS011;54767;53.800;15.956;2022-07-11T00:22:34;2.70;;;1.00;;
67986;SDS011;54767;53.800;15.956;2022-07-11T00:25:02;2.50;;;0.80;;
67986;SDS011;54767;53.800;15.956;2022-07-11T00:27:29;1.10;;;1.00;;
67986;SDS011;54767;53.800;15.956;2022-07-11T00:29:56;2.20;;;1.00;;
67986;SDS011;54767;53.800;15.956;2022-07-11T00:32:23;3.10;;;1.10;;
67986;SDS011;54767;53.800;15.956;2022-07-11T00:34:51;1.50;;;0.70;;
67986;SDS011;54767;53.800;15.956;2022-07-11T00:37:18;3.00;;;1.10;;
67986;SDS011;54767;53.800;15.956;2022-07-11T00:39:46;3.20;;;1.00;;
67986;SDS011;54767;53.800;15.956;2022-07-11T00:42:16;1.80;;;0.80;;
67986;SDS011;54767;53.800;15.956;2022-07-11T00:44:43;2.50;;;0.90;;
67986;SDS011;54767;53.800;15.956;2022-07-11T00:47:11;3.20;;;1.10;;
67986;SDS011;54767;53.800;15.956;2022-07-11T00:49:38;3.00;;;0.90;;
67986;SDS011;54767;53.800;15.956;2022-07-11T00:52:05;2.00;;;0.90;;
67986;SDS011;54767;53.800;15.956;2022-07-11T00:54:32;2.80;;;0.60;;
67986;SDS011;54767;53.800;15.956;2022-07-11T00:56:59;1.80;;;0.90;;
67986;SDS011;54767;53.800;15.956;2022-07-11T00:59:26;3.10;;;1.10;;
67986;SDS011;54767;53.800;15.956;2022-07-11T01:01:56;2.20;;;0.90;;
67986;SDS011;54767;53.800;15.956;2022-07-11T01:04:23;3.70;;;1.00;;
67986;SDS011;54767;53.800;15.956;2022-07-11T01:06:51;2.10;;;0.90;;
67986;SDS011;54767;53.800;15.956;2022-07-11T01:09:18;3.60;;;1.10;;
67986;SDS011;54767;53.800;15.956;2022-07-11T01:11:46;1.40;;;1.20;;
67986;SDS011;54767;53.800;15.956;2022-07-11T01:14:13;3.40;;;1.00;;
67986;SDS011;54767;53.800;15.956;2022-07-11T01:16:40;3.30;;;1.10;;
67986;SDS011;54767;53.800;15.956;2022-07-11T01:19:07;3.10;;;1.00;;
67986;SDS011;54767;53.800;15.956;2022-07-11T01:24:08;2.00;;;1.10;;
67986;SDS011;54767;53.800;15.956;2022-07-11T01:26:36;2.40;;;1.20;;
67986;SDS011;54767;53.800;15.956;2022-07-11T01:29:07;1.80;;;1.00;;
67986;SDS011;54767;53.800;15.956;2022-07-11T01:31:40;1.70;;;1.00;;
67986;SDS011;54767;53.800;15.956;2022-07-11T01:34:09;3.40;;;1.10;;
67986;SDS011;54767;53.800;15.956;2022-07-11T01:36:37;3.80;;;1.20;;
67986;SDS011;54767;53.800;15.956;2022-07-11T01:39:04;3.70;;;1.00;;
67986;SDS011;54767;53.800;15.956;2022-07-11T01:41:31;2.60;;;1.30;;
67986;SDS011;54767;53.800;15.956;2022-07-11T01:43:58;1.30;;;1.10;;
67986;SDS011;54767;53.800;15.956;2022-07-11T01:46:25;2.50;;;1.20;;
67986;SDS011;54767;53.800;15.956;2022-07-11T01:48:53;1.80;;;0.90;;
67986;SDS011;54767;53.800;15.956;2022-07-11T01:51:20;3.90;;;1.30;;
67986;SDS011;54767;53.800;15.956;2022-07-11T01:53:50;2.20;;;1.10;;
67986;SDS011;54767;53.800;15.956;2022-07-11T01:56:17;1.60;;;0.90;;
67986;SDS011;54767;53.800;15.956;2022-07-11T01:58:47;3.20;;;1.10;;
67986;SDS011;54767;53.800;15.956;2022-07-11T02:01:15;1.90;;;1.00;;
67986;SDS011;54767;53.800;15.956;2022-07-11T02:03:42;1.80;;;1.20;;
67986;SDS011;54767;53.800;15.956;2022-07-11T02:06:10;3.10;;;0.80;;
67986;SDS011;54767;53.800;15.956;2022-07-11T02:08:37;2.50;;;1.20;;
67986;SDS011;54767;53.800;15.956;2022-07-11T02:11:05;2.40;;;1.20;;
67986;SDS011;54767;53.800;15.956;2022-07-11T02:13:31;2.50;;;1.10;;
67986;SDS011;54767;53.800;15.956;2022-07-11T02:15:59;2.40;;;1.40;;
67986;SDS011;54767;53.800;15.956;2022-07-11T02:18:29;2.60;;;1.20;;
67986;SDS011;54767;53.800;15.956;2022-07-11T02:20:56;2.20;;;1.20;;
67986;SDS011;54767;53.800;15.956;2022-07-11T02:23:23;2.50;;;1.10;;
67986;SDS011;54767;53.800;15.956;2022-07-11T02:25:50;1.20;;;1.00;;
67986;SDS011;54767;53.800;15.956;2022-07-11T02:28:18;3.20;;;1.00;;
67986;SDS011;54767;53.800;15.956;2022-07-11T02:30:45;3.20;;;1.20;;
67986;SDS011;54767;53.800;15.956;2022-07-11T02:33:13;2.20;;;1.00;;
67986;SDS011;54767;53.800;15.956;2022-07-11T02:35:44;2.10;;;1.20;;
67986;SDS011;54767;53.800;15.956;2022-07-11T02:38:15;4.80;;;1.10;;
67986;SDS011;54767;53.800;15.956;2022-07-11T02:40:42;2.30;;;1.00;;
67986;SDS011;54767;53.800;15.956;2022-07-11T02:43:13;2.70;;;1.20;;
67986;SDS011;54767;53.800;15.956;2022-07-11T02:45:41;3.00;;;1.10;;
67986;SDS011;54767;53.800;15.956;2022-07-11T02:48:08;4.00;;;1.10;;
67986;SDS011;54767;53.800;15.956;2022-07-11T02:50:35;4.60;;;0.90;;
67986;SDS011;54767;53.800;15.956;2022-07-11T02:53:02;2.00;;;1.10;;
67986;SDS011;54767;53.800;15.956;2022-07-11T02:55:29;4.80;;;0.90;;
67986;SDS011;54767;53.800;15.956;2022-07-11T02:57:57;3.50;;;0.80;;
67986;SDS011;54767;53.800;15.956;2022-07-11T03:00:24;2.00;;;0.70;;
67986;SDS011;54767;53.800;15.956;2022-07-11T03:02:52;2.20;;;1.10;;
67986;SDS011;54767;53.800;15.956;2022-07-11T03:05:19;2.00;;;1.00;;
67986;SDS011;54767;53.800;15.956;2022-07-11T03:07:47;5.30;;;1.10;;
67986;SDS011;54767;53.800;15.956;2022-07-11T03:10:15;5.80;;;1.10;;
67986;SDS011;54767;53.800;15.956;2022-07-11T03:12:42;1.70;;;0.90;;
67986;SDS011;54767;53.800;15.956;2022-07-11T03:15:10;3.70;;;1.00;;
67986;SDS011;54767;53.800;15.956;2022-07-11T03:17:37;1.70;;;1.00;;
67986;SDS011;54767;53.800;15.956;2022-07-11T03:20:05;4.10;;;1.10;;
67986;SDS011;54767;53.800;15.956;2022-07-11T03:25:02;0.80;;;0.70;;
67986;SDS011;54767;53.800;15.956;2022-07-11T03:27:32;2.90;;;0.70;;
67986;SDS011;54767;53.800;15.956;2022-07-11T03:30:00;3.70;;;0.90;;
67986;SDS011;54767;53.800;15.956;2022-07-11T03:32:27;2.40;;;0.70;;
67986;SDS011;54767;53.800;15.956;2022-07-11T03:34:55;1.70;;;1.00;;
67986;SDS011;54767;53.800;15.956;2022-07-11T03:37:41;0.90;;;0.70;;
67986;SDS011;54767;53.800;15.956;2022-07-11T03:40:09;2.00;;;0.90;;
67986;SDS011;54767;53.800;15.956;2022-07-11T03:42:36;4.10;;;0.80;;
67986;SDS011;54767;53.800;15.956;2022-07-11T03:45:04;2.20;;;0.80;;
67986;SDS011;54767;53.800;15.956;2022-07-11T03:47:32;1.50;;;0.70;;
67986;SDS011;54767;53.800;15.956;2022-07-11T03:49:59;2.20;;;0.70;;
67986;SDS011;54767;53.800;15.956;2022-07-11T03:52:27;0.90;;;0.60;;
67986;SDS011;54767;53.800;15.956;2022-07-11T03:54:54;1.60;;;0.70;;
67986;SDS011;54767;53.800;15.956;2022-07-11T03:57:21;1.80;;;0.60;;
67986;SDS011;54767;53.800;15.956;2022-07-11T03:59:48;3.10;;;0.80;;
67986;SDS011;54767;53.800;15.956;2022-07-11T04:02:15;0.80;;;0.80;;
67986;SDS011;54767;53.800;15.956;2022-07-11T04:04:42;1.90;;;0.90;;
67986;SDS011;54767;53.800;15.956;2022-07-11T04:07:09;0.60;;;0.60;;
67986;SDS011;54767;53.800;15.956;2022-07-11T04:09:36;2.20;;;0.60;;
67986;SDS011;54767;53.800;15.956;2022-07-11T04:12:04;1.10;;;0.70;;
67986;SDS011;54767;53.800;15.956;2022-07-11T04:14:31;3.10;;;0.80;;
67986;SDS011;54767;53.800;15.956;2022-07-11T04:16:59;1.50;;;0.50;;
67986;SDS011;54767;53.800;15.956;2022-07-11T04:19:26;1.50;;;0.70;;
67986;SDS011;54767;53.800;15.956;2022-07-11T04:21:53;2.00;;;0.90;;
67986;SDS011;54767;53.800;15.956;2022-07-11T04:24:20;1.90;;;0.70;;
67986;SDS011;54767;53.800;15.956;2022-07-11T04:26:47;2.30;;;0.70;;
67986;SDS011;54767;53.800;15.956;2022-07-11T04:29:14;1.10;;;0.90;;
67986;SDS011;54767;53.800;15.956;2022-07-11T04:31:41;1.40;;;0.60;;
67986;SDS011;54767;53.800;15.956;2022-07-11T04:34:08;1.50;;;0.70;;
67986;SDS011;54767;53.800;15.956;2022-07-11T04:36:35;1.90;;;0.70;;
67986;SDS011;54767;53.800;15.956;2022-07-11T04:39:03;1.30;;;0.50;;
67986;SDS011;54767;53.800;15.956;2022-07-11T04:41:29;1.40;;;0.60;;
67986;SDS011;54767;53.800;15.956;2022-07-11T04:43:57;3.50;;;0.90;;
67986;SDS011;54767;53.800;15.956;2022-07-11T04:46:23;2.20;;;0.80;;
67986;SDS011;54767;53.800;15.956;2022-07-11T04:48:50;0.80;;;0.70;;
67986;SDS011;54767;53.800;15.956;2022-07-11T04:51:17;0.80;;;0.50;;
67986;SDS011;54767;53.800;15.956;2022-07-11T04:53:45;0.70;;;0.70;;
67986;SDS011;54767;53.800;15.956;2022-07-11T04:56:12;0.60;;;0.60;;
67986;SDS011;54767;53.800;15.956;2022-07-11T04:58:40;2.10;;;0.80;;
67986;SDS011;54767;53.800;15.956;2022-07-11T05:01:07;1.10;;;0.60;;
67986;SDS011;54767;53.800;15.956;2022-07-11T05:03:35;0.70;;;0.50;;
67986;SDS011;54767;53.800;15.956;2022-07-11T05:06:03;2.20;;;0.80;;
67986;SDS011;54767;53.800;15.956;2022-07-11T05:08:31;2.30;;;0.60;;
67986;SDS011;54767;53.800;15.956;2022-07-11T05:11:03;0.50;;;0.50;;
67986;SDS011;54767;53.800;15.956;2022-07-11T05:13:31;2.30;;;0.70;;
67986;SDS011;54767;53.800;15.956;2022-07-11T05:15:58;0.80;;;0.60;;
67986;SDS011;54767;53.800;15.956;2022-07-11T05:18:25;0.50;;;0.50;;
67986;SDS011;54767;53.800;15.956;2022-07-11T05:20:53;0.50;;;0.40;;
67986;SDS011;54767;53.800;15.956;2022-07-11T05:23:20;1.90;;;0.70;;
67986;SDS011;54767;53.800;15.956;2022-07-11T05:25:47;2.50;;;0.70;;
67986;SDS011;54767;53.800;15.956;2022-07-11T05:28:14;3.20;;;0.90;;
67986;SDS011;54767;53.800;15.956;2022-07-11T05:30:41;0.80;;;0.80;;
67986;SDS011;54767;53.800;15.956;2022-07-11T05:33:08;0.60;;;0.60;;
67986;SDS011;54767;53.800;15.956;2022-07-11T05:35:35;1.80;;;0.70;;
67986;SDS011;54767;53.800;15.956;2022-07-11T05:38:02;1.10;;;0.60;;
67986;SDS011;54767;53.800;15.956;2022-07-11T05:40:29;1.90;;;0.70;;
67986;SDS011;54767;53.800;15.956;2022-07-11T05:42:56;1.10;;;0.50;;
67986;SDS011;54767;53.800;15.956;2022-07-11T05:45:23;2.00;;;0.70;;
67986;SDS011;54767;53.800;15.956;2022-07-11T05:47:50;1.00;;;0.70;;
67986;SDS011;54767;53.800;15.956;2022-07-11T05:50:17;1.20;;;0.40;;
67986;SDS011;54767;53.800;15.956;2022-07-11T05:52:44;0.90;;;0.60;;
67986;SDS011;54767;53.800;15.956;2022-07-11T05:55:11;1.40;;;0.50;;
67986;SDS011;54767;53.800;15.956;2022-07-11T05:57:45;0.60;;;0.50;;
67986;SDS011;54767;53.800;15.956;2022-07-11T06:00:12;1.00;;;0.50;;
67986;SDS011;54767;53.800;15.956;2022-07-11T06:02:39;0.80;;;0.60;;
67986;SDS011;54767;53.800;15.956;2022-07-11T06:05:07;1.20;;;0.50;;
67986;SDS011;54767;53.800;15.956;2022-07-11T06:07:34;0.90;;;0.50;;
67986;SDS011;54767;53.800;15.956;2022-07-11T06:10:26;1.00;;;0.50;;
67986;SDS011;54767;53.800;15.956;2022-07-11T06:12:54;0.60;;;0.50;;
67986;SDS011;54767;53.800;15.956;2022-07-11T06:15:21;0.70;;;0.50;;
67986;SDS011;54767;53.800;15.956;2022-07-11T06:17:48;1.30;;;0.80;;
67986;SDS011;54767;53.800;15.956;2022-07-11T06:20:15;0.90;;;0.60;;
67986;SDS011;54767;53.800;15.956;2022-07-11T06:22:42;0.70;;;0.60;;
67986;SDS011;54767;53.800;15.956;2022-07-11T06:25:09;1.20;;;0.60;;
67986;SDS011;54767;53.800;15.956;2022-07-11T06:27:37;0.70;;;0.40;;
67986;SDS011;54767;53.800;15.956;2022-07-11T06:30:04;1.20;;;0.50;;
67986;SDS011;54767;53.800;15.956;2022-07-11T06:32:31;0.30;;;0.30;;
67986;SDS011;54767;53.800;15.956;2022-07-11T06:34:58;0.60;;;0.50;;
67986;SDS011;54767;53.800;15.956;2022-07-11T06:37:25;0.40;;;0.40;;
67986;SDS011;54767;53.800;15.956;2022-07-11T06:39:52;1.10;;;0.50;;
67986;SDS011;54767;53.800;15.956;2022-07-11T06:42:19;0.60;;;0.60;;
67986;SDS011;54767;53.800;15.956;2022-07-11T06:44:51;0.90;;;0.60;;
67986;SDS011;54767;53.800;15.956;2022-07-11T06:47:19;0.60;;;0.50;;
67986;SDS011;54767;53.800;15.956;2022-07-11T06:49:46;1.40;;;0.70;;
67986;SDS011;54767;53.800;15.956;2022-07-11T06:52:13;2.40;;;0.60;;
67986;SDS011;54767;53.800;15.956;2022-07-11T06:54:41;1.60;;;0.60;;
67986;SDS011;54767;53.800;15.956;2022-07-11T06:57:08;0.90;;;0.60;;
67986;SDS011;54767;53.800;15.956;2022-07-11T06:59:38;0.60;;;0.50;;
67986;SDS011;54767;53.800;15.956;2022-07-11T07:02:05;1.80;;;0.50;;
67986;SDS011;54767;53.800;15.956;2022-07-11T07:04:32;0.80;;;0.50;;
67986;SDS011;54767;53.800;15.956;2022-07-11T07:07:00;0.50;;;0.30;;
67986;SDS011;54767;53.800;15.956;2022-07-11T07:09:28;1.90;;;0.80;;
67986;SDS011;54767;53.800;15.956;2022-07-11T07:11:56;1.10;;;0.70;;
67986;SDS011;54767;53.800;15.956;2022-07-11T07:14:24;0.70;;;0.60;;
67986;SDS011;54767;53.800;15.956;2022-07-11T07:16:51;0.70;;;0.40;;
67986;SDS011;54767;53.800;15.956;2022-07-11T07:19:18;2.70;;;0.70;;
67986;SDS011;54767;53.800;15.956;2022-07-11T07:21:45;1.30;;;0.50;;
67986;SDS011;54767;53.800;15.956;2022-07-11T07:24:12;0.60;;;0.50;;
67986;SDS011;54767;53.800;15.956;2022-07-11T07:26:44;0.70;;;0.50;;
67986;SDS011;54767;53.800;15.956;2022-07-11T07:29:11;0.70;;;0.40;;
67986;SDS011;54767;53.800;15.956;2022-07-11T07:31:38;0.80;;;0.60;;
67986;SDS011;54767;53.800;15.956;2022-07-11T07:34:05;0.40;;;0.40;;
67986;SDS011;54767;53.800;15.956;2022-07-11T07:36:32;1.30;;;0.50;;
67986;SDS011;54767;53.800;15.956;2022-07-11T07:38:59;1.00;;;0.50;;
67986;SDS011;54767;53.800;15.956;2022-07-11T07:41:27;0.30;;;0.30;;
67986;SDS011;54767;53.800;15.956;2022-07-11T07:43:54;0.60;;;0.60;;
67986;SDS011;54767;53.800;15.956;2022-07-11T07:46:21;1.80;;;0.60;;
67986;SDS011;54767;53.800;15.956;2022-07-11T07:48:49;0.80;;;0.50;;
67986;SDS011;54767;53.800;15.956;2022-07-11T07:51:16;0.70;;;0.40;;
67986;SDS011;54767;53.800;15.956;2022-07-11T07:53:43;1.90;;;0.60;;
67986;SDS011;54767;53.800;15.956;2022-07-11T07:56:10;0.60;;;0.50;;
67986;SDS011;54767;53.800;15.956;2022-07-11T07:58:37;1.70;;;0.60;;
67986;SDS011;54767;53.800;15.956;2022-07-11T08:01:05;0.90;;;0.50;;
67986;SDS011;54767;53.800;15.956;2022-07-11T08:03:52;1.50;;;0.60;;
67986;SDS011;54767;53.800;15.956;2022-07-11T08:06:20;0.50;;;0.50;;
67986;SDS011;54767;53.800;15.956;2022-07-11T08:08:48;2.50;;;0.60;;
67986;SDS011;54767;53.800;15.956;2022-07-11T08:11:15;0.60;;;0.40;;
67986;SDS011;54767;53.800;15.956;2022-07-11T08:13:59;0.60;;;0.60;;
67986;SDS011;54767;53.800;15.956;2022-07-11T08:16:27;2.60;;;0.70;;
67986;SDS011;54767;53.800;15.956;2022-07-11T08:18:59;1.70;;;0.60;;
67986;SDS011;54767;53.800;15.956;2022-07-11T08:21:28;0.50;;;0.40;;
67986;SDS011;54767;53.800;15.956;2022-07-11T08:23:55;0.60;;;0.60;;
67986;SDS011;54767;53.800;15.956;2022-07-11T08:26:23;1.00;;;0.70;;
67986;SDS011;54767;53.800;15.956;2022-07-11T08:28:59;0.50;;;0.50;;
67986;SDS011;54767;53.800;15.956;2022-07-11T08:31:27;0.50;;;0.50;;
67986;SDS011;54767;53.800;15.956;2022-07-11T08:33:54;1.20;;;0.60;;
67986;SDS011;54767;53.800;15.956;2022-07-11T08:36:24;2.60;;;0.80;;
67986;SDS011;54767;53.800;15.956;2022-07-11T08:38:53;1.10;;;0.60;;
67986;SDS011;54767;53.800;15.956;2022-07-11T08:41:20;1.40;;;0.80;;
67986;SDS011;54767;53.800;15.956;2022-07-11T08:43:47;1.70;;;0.90;;
67986;SDS011;54767;53.800;15.956;2022-07-11T08:46:17;0.60;;;0.60;;
67986;SDS011;54767;53.800;15.956;2022-07-11T08:48:46;0.90;;;0.60;;
67986;SDS011;54767;53.800;15.956;2022-07-11T08:51:14;0.50;;;0.50;;
67986;SDS011;54767;53.800;15.956;2022-07-11T08:53:42;0.70;;;0.50;;
67986;SDS011;54767;53.800;15.956;2022-07-11T08:56:12;1.50;;;0.70;;
67986;SDS011;54767;53.800;15.956;2022-07-11T08:58:49;0.70;;;0.70;;
67986;SDS011;54767;53.800;15.956;2022-07-11T09:01:25;0.80;;;0.70;;
67986;SDS011;54767;53.800;15.956;2022-07-11T09:03:56;0.70;;;0.60;;
67986;SDS011;54767;53.800;15.956;2022-07-11T09:06:24;0.60;;;0.50;;
67986;SDS011;54767;53.800;15.956;2022-07-11T09:08:56;1.30;;;0.60;;
67986;SDS011;54767;53.800;15.956;2022-07-11T09:11:25;0.60;;;0.60;;
67986;SDS011;54767;53.800;15.956;2022-07-11T09:13:52;0.80;;;0.70;;
67986;SDS011;54767;53.800;15.956;2022-07-11T09:16:19;0.70;;;0.70;;
67986;SDS011;54767;53.800;15.956;2022-07-11T09:18:52;0.60;;;0.60;;
67986;SDS011;54767;53.800;15.956;2022-07-11T09:21:19;0.60;;;0.60;;
67986;SDS011;54767;53.800;15.956;2022-07-11T09:24:05;1.20;;;0.60;;
67986;SDS011;54767;53.800;15.956;2022-07-11T09:26:51;0.60;;;0.60;;
67986;SDS011;54767;53.800;15.956;2022-07-11T09:29:20;0.70;;;0.70;;
67986;SDS011;54767;53.800;15.956;2022-07-11T09:31:50;2.30;;;0.70;;
67986;SDS011;54767;53.800;15.956;2022-07-11T09:34:18;0.50;;;0.50;;
67986;SDS011;54767;53.800;15.956;2022-07-11T09:36:49;0.60;;;0.60;;
67986;SDS011;54767;53.800;15.956;2022-07-11T09:39:19;1.90;;;0.60;;
67986;SDS011;54767;53.800;15.956;2022-07-11T09:41:49;1.10;;;0.60;;
67986;SDS011;54767;53.800;15.956;2022-07-11T09:44:19;0.90;;;0.70;;
67986;SDS011;54767;53.800;15.956;2022-07-11T09:46:49;0.50;;;0.50;;
67986;SDS011;54767;53.800;15.956;2022-07-11T09:49:35;1.00;;;0.50;;
67986;SDS011;54767;53.800;15.956;2022-07-11T09:54:51;0.90;;;0.70;;
67986;SDS011;54767;53.800;15.956;2022-07-11T09:57:33;1.00;;;0.70;;
67986;SDS011;54767;53.800;15.956;2022-07-11T10:00:10;0.90;;;0.90;;
67986;SDS011;54767;53.800;15.956;2022-07-11T10:02:38;0.60;;;0.60;;
67986;SDS011;54767;53.800;15.956;2022-07-11T10:05:09;0.50;;;0.50;;
67986;SDS011;54767;53.800;15.956;2022-07-11T10:07:36;1.00;;;0.60;;
67986;SDS011;54767;53.800;15.956;2022-07-11T10:10:04;1.80;;;0.60;;
67986;SDS011;54767;53.800;15.956;2022-07-11T10:12:33;0.60;;;0.60;;
67986;SDS011;54767;53.800;15.956;2022-07-11T10:15:01;1.10;;;0.70;;
67986;SDS011;54767;53.800;15.956;2022-07-11T10:28:06;1.10;;;0.50;;
67986;SDS011;54767;53.800;15.956;2022-07-11T10:30:50;0.50;;;0.50;;
67986;SDS011;54767;53.800;15.956;2022-07-11T10:33:19;2.10;;;0.60;;
67986;SDS011;54767;53.800;15.956;2022-07-11T10:35:48;0.40;;;0.40;;
67986;SDS011;54767;53.800;15.956;2022-07-11T10:38:16;0.40;;;0.40;;
67986;SDS011;54767;53.800;15.956;2022-07-11T10:43:12;0.40;;;0.40;;
67986;SDS011;54767;53.800;15.956;2022-07-11T10:48:22;2.50;;;0.50;;
67986;SDS011;54767;53.800;15.956;2022-07-11T10:51:01;0.70;;;0.50;;
67986;SDS011;54767;53.800;15.956;2022-07-11T10:53:39;1.20;;;0.50;;
67986;SDS011;54767;53.800;15.956;2022-07-11T10:59:22;0.90;;;0.60;;
67986;SDS011;54767;53.800;15.956;2022-07-11T11:02:08;0.30;;;0.30;;
67986;SDS011;54767;53.800;15.956;2022-07-11T11:04:54;0.50;;;0.50;;
67986;SDS011;54767;53.800;15.956;2022-07-11T11:10:06;1.60;;;0.50;;
67986;SDS011;54767;53.800;15.956;2022-07-11T11:15:44;0.40;;;0.40;;
67986;SDS011;54767;53.800;15.956;2022-07-11T11:23:36;1.40;;;0.40;;
67986;SDS011;54767;53.800;15.956;2022-07-11T11:26:16;0.50;;;0.50;;
67986;SDS011;54767;53.800;15.956;2022-07-11T11:28:58;0.40;;;0.40;;
67986;SDS011;54767;53.800;15.956;2022-07-11T11:31:32;0.40;;;0.40;;
67986;SDS011;54767;53.800;15.956;2022-07-11T11:34:00;5.10;;;0.90;;
67986;SDS011;54767;53.800;15.956;2022-07-11T11:36:29;0.30;;;0.30;;
67986;SDS011;54767;53.800;15.956;2022-07-11T11:38:57;0.50;;;0.50;;
67986;SDS011;54767;53.800;15.956;2022-07-11T11:43:52;0.30;;;0.30;;
67986;SDS011;54767;53.800;15.956;2022-07-11T11:46:31;0.40;;;0.40;;
67986;SDS011;54767;53.800;15.956;2022-07-11T11:49:02;1.10;;;0.50;;
67986;SDS011;54767;53.800;15.956;2022-07-11T11:51:31;0.50;;;0.50;;
67986;SDS011;54767;53.800;15.956;2022-07-11T11:54:02;0.90;;;0.40;;
67986;SDS011;54767;53.800;15.956;2022-07-11T11:56:30;1.40;;;0.40;;
67986;SDS011;54767;53.800;15.956;2022-07-11T11:59:03;1.90;;;0.60;;
67986;SDS011;54767;53.800;15.956;2022-07-11T12:01:44;0.50;;;0.50;;
67986;SDS011;54767;53.800;15.956;2022-07-11T12:04:13;0.50;;;0.50;;
67986;SDS011;54767;53.800;15.956;2022-07-11T12:06:42;1.10;;;0.60;;
67986;SDS011;54767;53.800;15.956;2022-07-11T12:11:43;1.20;;;0.50;;
67986;SDS011;54767;53.800;15.956;2022-07-11T12:16:41;1.40;;;0.70;;
67986;SDS011;54767;53.800;15.956;2022-07-11T12:19:16;2.10;;;0.50;;
67986;SDS011;54767;53.800;15.956;2022-07-11T12:21:46;2.30;;;0.50;;
67986;SDS011;54767;53.800;15.956;2022-07-11T12:24:18;0.40;;;0.40;;
67986;SDS011;54767;53.800;15.956;2022-07-11T12:26:47;0.60;;;0.50;;
67986;SDS011;54767;53.800;15.956;2022-07-11T12:34:13;0.40;;;0.40;;
67986;SDS011;54767;53.800;15.956;2022-07-11T12:36:43;0.90;;;0.80;;
67986;SDS011;54767;53.800;15.956;2022-07-11T12:39:24;0.40;;;0.40;;
67986;SDS011;54767;53.800;15.956;2022-07-11T12:41:53;1.90;;;0.40;;
67986;SDS011;54767;53.800;15.956;2022-07-11T12:44:24;0.40;;;0.40;;
67986;SDS011;54767;53.800;15.956;2022-07-11T12:47:13;0.40;;;0.40;;
67986;SDS011;54767;53.800;15.956;2022-07-11T12:49:42;0.70;;;0.50;;
67986;SDS011;54767;53.800;15.956;2022-07-11T12:52:12;0.50;;;0.40;;
67986;SDS011;54767;53.800;15.956;2022-07-11T12:54:40;0.40;;;0.30;;
67986;SDS011;54767;53.800;15.956;2022-07-11T12:57:08;0.50;;;0.50;;
67986;SDS011;54767;53.800;15.956;2022-07-11T12:59:39;0.40;;;0.40;;
67986;SDS011;54767;53.800;15.956;2022-07-11T13:02:07;0.70;;;0.40;;
67986;SDS011;54767;53.800;15.956;2022-07-11T13:10:53;0.40;;;0.40;;
67986;SDS011;54767;53.800;15.956;2022-07-11T13:13:33;0.60;;;0.50;;
67986;SDS011;54767;53.800;15.956;2022-07-11T13:16:01;0.40;;;0.40;;
67986;SDS011;54767;53.800;15.956;2022-07-11T13:18:30;0.40;;;0.40;;
67986;SDS011;54767;53.800;15.956;2022-07-11T13:20:59;0.70;;;0.30;;
67986;SDS011;54767;53.800;15.956;2022-07-11T13:23:28;0.40;;;0.30;;
67986;SDS011;54767;53.800;15.956;2022-07-11T13:25:56;1.50;;;0.40;;
67986;SDS011;54767;53.800;15.956;2022-07-11T13:28:24;0.30;;;0.30;;
67986;SDS011;54767;53.800;15.956;2022-07-11T13:30:52;1.10;;;0.40;;
67986;SDS011;54767;53.800;15.956;2022-07-11T13:33:40;0.40;;;0.40;;
67986;SDS011;54767;53.800;15.956;2022-07-11T13:36:09;0.40;;;0.40;;
67986;SDS011;54767;53.800;15.956;2022-07-11T13:38:37;0.40;;;0.40;;
67986;SDS011;54767;53.800;15.956;2022-07-11T13:41:05;0.30;;;0.30;;
67986;SDS011;54767;53.800;15.956;2022-07-11T13:43:43;0.90;;;0.40;;
67986;SDS011;54767;53.800;15.956;2022-07-11T13:46:12;0.30;;;0.30;;
67986;SDS011;54767;53.800;15.956;2022-07-11T13:48:40;0.30;;;0.30;;
67986;SDS011;54767;53.800;15.956;2022-07-11T13:51:09;0.40;;;0.40;;
67986;SDS011;54767;53.800;15.956;2022-07-11T13:53:37;0.80;;;0.50;;
67986;SDS011;54767;53.800;15.956;2022-07-11T13:56:04;0.40;;;0.40;;
67986;SDS011;54767;53.800;15.956;2022-07-11T13:58:32;0.40;;;0.40;;
67986;SDS011;54767;53.800;15.956;2022-07-11T14:01:00;0.50;;;0.40;;
67986;SDS011;54767;53.800;15.956;2022-07-11T14:03:28;1.50;;;0.60;;
67986;SDS011;54767;53.800;15.956;2022-07-11T14:05:57;0.90;;;0.30;;
67986;SDS011;54767;53.800;15.956;2022-07-11T14:08:23;0.40;;;0.40;;
67986;SDS011;54767;53.800;15.956;2022-07-11T14:10:51;0.40;;;0.40;;
67986;SDS011;54767;53.800;15.956;2022-07-11T14:13:18;1.20;;;0.60;;
67986;SDS011;54767;53.800;15.956;2022-07-11T14:15:46;0.50;;;0.50;;
67986;SDS011;54767;53.800;15.956;2022-07-11T14:18:15;0.50;;;0.50;;
67986;SDS011;54767;53.800;15.956;2022-07-11T14:20:42;1.60;;;0.60;;
67986;SDS011;54767;53.800;15.956;2022-07-11T14:23:09;0.40;;;0.40;;
67986;SDS011;54767;53.800;15.956;2022-07-11T14:25:36;0.40;;;0.40;;
67986;SDS011;54767;53.800;15.956;2022-07-11T14:28:03;0.60;;;0.60;;
67986;SDS011;54767;53.800;15.956;2022-07-11T14:30:32;0.60;;;0.50;;
67986;SDS011;54767;53.800;15.956;2022-07-11T14:33:00;0.70;;;0.70;;
67986;SDS011;54767;53.800;15.956;2022-07-11T14:35:27;1.90;;;0.60;;
67986;SDS011;54767;53.800;15.956;2022-07-11T14:37:54;0.80;;;0.50;;
67986;SDS011;54767;53.800;15.956;2022-07-11T14:40:21;1.40;;;0.50;;
67986;SDS011;54767;53.800;15.956;2022-07-11T14:42:55;0.50;;;0.50;;
67986;SDS011;54767;53.800;15.956;2022-07-11T14:45:22;1.70;;;0.60;;
67986;SDS011;54767;53.800;15.956;2022-07-11T14:47:49;0.80;;;0.50;;
67986;SDS011;54767;53.800;15.956;2022-07-11T14:50:18;0.60;;;0.60;;
67986;SDS011;54767;53.800;15.956;2022-07-11T14:52:45;0.40;;;0.40;;
67986;SDS011;54767;53.800;15.956;2022-07-11T14:55:13;0.50;;;0.50;;
67986;SDS011;54767;53.800;15.956;2022-07-11T14:57:40;1.20;;;0.60;;
67986;SDS011;54767;53.800;15.956;2022-07-11T15:00:14;0.50;;;0.50;;
67986;SDS011;54767;53.800;15.956;2022-07-11T15:02:45;2.40;;;0.60;;
67986;SDS011;54767;53.800;15.956;2022-07-11T15:05:31;1.00;;;0.60;;
67986;SDS011;54767;53.800;15.956;2022-07-11T15:07:59;0.50;;;0.50;;
67986;SDS011;54767;53.800;15.956;2022-07-11T15:10:44;0.40;;;0.40;;
67986;SDS011;54767;53.800;15.956;2022-07-11T15:13:30;0.40;;;0.40;;
67986;SDS011;54767;53.800;15.956;2022-07-11T15:15:57;0.50;;;0.50;;
67986;SDS011;54767;53.800;15.956;2022-07-11T15:18:24;0.60;;;0.60;;
67986;SDS011;54767;53.800;15.956;2022-07-11T15:20:52;0.50;;;0.40;;
67986;SDS011;54767;53.800;15.956;2022-07-11T15:23:19;0.60;;;0.60;;
67986;SDS011;54767;53.800;15.956;2022-07-11T15:25:46;0.60;;;0.60;;
67986;SDS011;54767;53.800;15.956;2022-07-11T15:28:13;1.40;;;0.80;;
67986;SDS011;54767;53.800;15.956;2022-07-11T15:30:48;0.60;;;0.40;;
67986;SDS011;54767;53.800;15.956;2022-07-11T15:33:16;0.80;;;0.60;;
67986;SDS011;54767;53.800;15.956;2022-07-11T15:35:43;0.80;;;0.60;;
67986;SDS011;54767;53.800;15.956;2022-07-11T15:38:10;0.90;;;0.50;;
67986;SDS011;54767;53.800;15.956;2022-07-11T15:40:38;0.70;;;0.50;;